sensor_id;sensor_type;location;lat;lon;timestamp;P1;durP1;ratioP1;P2;durP2;ratioP2
9304;SDS011;4690;52.422;13.486;2022-09-09T00:06:19;9.75;;;8.95;;
9304;SDS011;4690;52.422;13.486;2022-09-09T00:11:54;8.93;;;8.20;;
9304;SDS011;4690;52.422;13.486;2022-09-09T00:17:33;8.80;;;8.00;;
9304;SDS011;4690;52.422;13.486;2022-09-09T00:26:38;9.63;;;8.73;;
9304;SDS011;4690;52.422;13.486;2022-09-09T00:32:14;7.60;;;7.00;;
9304;SDS011;4690;52.422;13.486;2022-09-09T00:34:47;7.72;;;7.13;;
9304;SDS011;4690;52.422;13.486;2022-09-09T00:37:43;8.02;;;7.32;;
9304;SDS011;4690;52.422;13.486;2022-09-09T00:40:21;8.43;;;7.50;;
9304;SDS011;4690;52.422;13.486;2022-09-09T00:51:56;8.18;;;7.38;;
9304;SDS011;4690;52.422;13.486;2022-09-09T00:54:48;8.15;;;7.35;;
9304;SDS011;4690;52.422;13.486;2022-09-09T00:57:29;12.85;;;8.73;;
9304;SDS011;4690;52.422;13.486;2022-09-09T01:00:18;11.52;;;8.75;;
9304;SDS011;4690;52.422;13.486;2022-09-09T01:14:44;14.40;;;9.17;;
9304;SDS011;4690;52.422;13.486;2022-09-09T01:17:19;10.90;;;8.70;;
9304;SDS011;4690;52.422;13.486;2022-09-09T01:22:36;10.45;;;7.75;;
9304;SDS011;4690;52.422;13.486;2022-09-09T01:28:48;8.63;;;7.77;;
9304;SDS011;4690;52.422;13.486;2022-09-09T01:31:26;11.32;;;8.35;;
9304;SDS011;4690;52.422;13.486;2022-09-09T01:34:18;9.43;;;7.33;;
9304;SDS011;4690;52.422;13.486;2022-09-09T01:36:59;7.25;;;6.55;;
9304;SDS011;4690;52.422;13.486;2022-09-09T01:39:33;7.40;;;6.15;;
9304;SDS011;4690;52.422;13.486;2022-09-09T01:42:03;7.03;;;6.33;;
9304;SDS011;4690;52.422;13.486;2022-09-09T01:44:32;7.30;;;6.70;;
9304;SDS011;4690;52.422;13.486;2022-09-09T01:47:01;8.35;;;7.50;;
9304;SDS011;4690;52.422;13.486;2022-09-09T01:49:28;11.00;;;8.02;;
9304;SDS011;4690;52.422;13.486;2022-09-09T01:51:55;8.30;;;7.22;;
9304;SDS011;4690;52.422;13.486;2022-09-09T01:54:24;7.00;;;6.45;;
9304;SDS011;4690;52.422;13.486;2022-09-09T02:02:26;7.38;;;6.43;;
9304;SDS011;4690;52.422;13.486;2022-09-09T02:05:17;6.95;;;6.35;;
9304;SDS011;4690;52.422;13.486;2022-09-09T02:11:03;8.13;;;6.68;;
9304;SDS011;4690;52.422;13.486;2022-09-09T02:13:40;7.13;;;6.30;;
9304;SDS011;4690;52.422;13.486;2022-09-09T02:16:18;8.05;;;7.30;;
9304;SDS011;4690;52.422;13.486;2022-09-09T02:19:08;13.73;;;8.27;;
9304;SDS011;4690;52.422;13.486;2022-09-09T02:21:57;7.40;;;6.70;;
9304;SDS011;4690;52.422;13.486;2022-09-09T02:24:26;11.25;;;8.73;;
9304;SDS011;4690;52.422;13.486;2022-09-09T02:26:55;7.45;;;6.82;;
9304;SDS011;4690;52.422;13.486;2022-09-09T02:29:27;7.70;;;7.00;;
9304;SDS011;4690;52.422;13.486;2022-09-09T02:32:00;7.83;;;7.13;;
9304;SDS011;4690;52.422;13.486;2022-09-09T02:34:31;9.32;;;7.20;;
9304;SDS011;4690;52.422;13.486;2022-09-09T02:37:06;8.30;;;7.50;;
9304;SDS011;4690;52.422;13.486;2022-09-09T02:39:36;7.22;;;6.63;;
9304;SDS011;4690;52.422;13.486;2022-09-09T02:42:03;7.23;;;6.63;;
9304;SDS011;4690;52.422;13.486;2022-09-09T02:44:29;7.15;;;6.45;;
9304;SDS011;4690;52.422;13.486;2022-09-09T02:55:47;9.70;;;7.30;;
9304;SDS011;4690;52.422;13.486;2022-09-09T02:58:26;8.43;;;6.85;;
9304;SDS011;4690;52.422;13.486;2022-09-09T03:00:52;9.43;;;7.88;;
9304;SDS011;4690;52.422;13.486;2022-09-09T03:03:18;8.00;;;7.30;;
9304;SDS011;4690;52.422;13.486;2022-09-09T03:05:46;8.60;;;7.35;;
9304;SDS011;4690;52.422;13.486;2022-09-09T03:08:11;8.80;;;7.73;;
9304;SDS011;4690;52.422;13.486;2022-09-09T03:10:38;7.47;;;6.80;;
9304;SDS011;4690;52.422;13.486;2022-09-09T03:13:04;8.18;;;7.38;;
9304;SDS011;4690;52.422;13.486;2022-09-09T03:15:31;7.83;;;7.03;;
9304;SDS011;4690;52.422;13.486;2022-09-09T03:17:58;7.72;;;7.03;;
9304;SDS011;4690;52.422;13.486;2022-09-09T03:20:25;11.73;;;7.55;;
9304;SDS011;4690;52.422;13.486;2022-09-09T03:22:53;7.72;;;6.93;;
9304;SDS011;4690;52.422;13.486;2022-09-09T03:25:20;8.33;;;7.50;;
9304;SDS011;4690;52.422;13.486;2022-09-09T03:27:51;6.73;;;6.13;;
9304;SDS011;4690;52.422;13.486;2022-09-09T03:30:20;8.23;;;7.47;;
9304;SDS011;4690;52.422;13.486;2022-09-09T03:32:51;7.43;;;6.80;;
9304;SDS011;4690;52.422;13.486;2022-09-09T03:35:17;10.33;;;7.40;;
9304;SDS011;4690;52.422;13.486;2022-09-09T03:37:44;8.07;;;6.83;;
9304;SDS011;4690;52.422;13.486;2022-09-09T03:40:10;7.97;;;7.28;;
9304;SDS011;4690;52.422;13.486;2022-09-09T03:42:36;7.30;;;6.70;;
9304;SDS011;4690;52.422;13.486;2022-09-09T03:45:03;7.88;;;7.07;;
9304;SDS011;4690;52.422;13.486;2022-09-09T03:47:33;7.97;;;7.13;;
9304;SDS011;4690;52.422;13.486;2022-09-09T03:49:59;9.13;;;7.53;;
9304;SDS011;4690;52.422;13.486;2022-09-09T03:52:25;7.97;;;7.17;;
9304;SDS011;4690;52.422;13.486;2022-09-09T03:54:52;11.37;;;7.77;;
9304;SDS011;4690;52.422;13.486;2022-09-09T03:57:19;11.20;;;8.63;;
9304;SDS011;4690;52.422;13.486;2022-09-09T03:59:46;7.85;;;7.15;;
9304;SDS011;4690;52.422;13.486;2022-09-09T04:02:12;8.53;;;7.73;;
9304;SDS011;4690;52.422;13.486;2022-09-09T04:04:38;9.80;;;8.00;;
9304;SDS011;4690;52.422;13.486;2022-09-09T04:07:03;7.97;;;7.20;;
9304;SDS011;4690;52.422;13.486;2022-09-09T04:09:31;11.13;;;8.07;;
9304;SDS011;4690;52.422;13.486;2022-09-09T04:11:58;11.70;;;9.60;;
9304;SDS011;4690;52.422;13.486;2022-09-09T04:14:23;8.30;;;7.60;;
9304;SDS011;4690;52.422;13.486;2022-09-09T04:16:53;12.60;;;9.10;;
9304;SDS011;4690;52.422;13.486;2022-09-09T04:19:21;7.60;;;6.90;;
9304;SDS011;4690;52.422;13.486;2022-09-09T04:21:46;11.23;;;8.27;;
9304;SDS011;4690;52.422;13.486;2022-09-09T04:24:14;8.30;;;7.47;;
9304;SDS011;4690;52.422;13.486;2022-09-09T04:26:41;7.43;;;6.73;;
9304;SDS011;4690;52.422;13.486;2022-09-09T04:29:07;7.83;;;7.23;;
9304;SDS011;4690;52.422;13.486;2022-09-09T04:31:33;11.80;;;7.97;;
9304;SDS011;4690;52.422;13.486;2022-09-09T04:33:59;9.00;;;7.93;;
9304;SDS011;4690;52.422;13.486;2022-09-09T04:36:29;8.10;;;7.30;;
9304;SDS011;4690;52.422;13.486;2022-09-09T04:38:59;8.30;;;7.40;;
9304;SDS011;4690;52.422;13.486;2022-09-09T04:41:24;7.97;;;7.30;;
9304;SDS011;4690;52.422;13.486;2022-09-09T04:43:50;9.40;;;8.00;;
9304;SDS011;4690;52.422;13.486;2022-09-09T04:46:18;7.53;;;6.83;;
9304;SDS011;4690;52.422;13.486;2022-09-09T04:48:45;7.60;;;6.90;;
9304;SDS011;4690;52.422;13.486;2022-09-09T04:51:12;8.13;;;7.43;;
9304;SDS011;4690;52.422;13.486;2022-09-09T04:53:39;7.67;;;7.00;;
9304;SDS011;4690;52.422;13.486;2022-09-09T04:56:09;7.43;;;6.67;;
9304;SDS011;4690;52.422;13.486;2022-09-09T04:58:36;7.83;;;7.03;;
9304;SDS011;4690;52.422;13.486;2022-09-09T05:01:07;8.60;;;7.60;;
9304;SDS011;4690;52.422;13.486;2022-09-09T05:03:42;8.33;;;7.50;;
9304;SDS011;4690;52.422;13.486;2022-09-09T05:06:13;8.20;;;7.50;;
9304;SDS011;4690;52.422;13.486;2022-09-09T05:08:42;8.03;;;7.30;;
9304;SDS011;4690;52.422;13.486;2022-09-09T05:11:16;7.10;;;6.47;;
9304;SDS011;4690;52.422;13.486;2022-09-09T05:13:44;8.00;;;7.10;;
9304;SDS011;4690;52.422;13.486;2022-09-09T05:16:11;8.03;;;6.23;;
9304;SDS011;4690;52.422;13.486;2022-09-09T05:18:39;7.10;;;6.50;;
9304;SDS011;4690;52.422;13.486;2022-09-09T05:21:06;7.73;;;6.93;;
9304;SDS011;4690;52.422;13.486;2022-09-09T05:23:33;9.00;;;8.20;;
9304;SDS011;4690;52.422;13.486;2022-09-09T05:25:59;9.43;;;7.70;;
9304;SDS011;4690;52.422;13.486;2022-09-09T05:28:26;7.80;;;7.05;;
9304;SDS011;4690;52.422;13.486;2022-09-09T05:30:59;10.10;;;7.40;;
9304;SDS011;4690;52.422;13.486;2022-09-09T05:33:32;6.43;;;5.83;;
9304;SDS011;4690;52.422;13.486;2022-09-09T05:36:04;8.80;;;6.43;;
9304;SDS011;4690;52.422;13.486;2022-09-09T05:38:38;6.93;;;6.22;;
9304;SDS011;4690;52.422;13.486;2022-09-09T05:41:06;9.98;;;6.85;;
9304;SDS011;4690;52.422;13.486;2022-09-09T05:43:32;6.50;;;5.90;;
9304;SDS011;4690;52.422;13.486;2022-09-09T05:48:34;7.03;;;5.90;;
9304;SDS011;4690;52.422;13.486;2022-09-09T05:51:07;5.97;;;5.38;;
9304;SDS011;4690;52.422;13.486;2022-09-09T05:53:40;6.53;;;5.53;;
9304;SDS011;4690;52.422;13.486;2022-09-09T05:56:08;5.32;;;4.82;;
9304;SDS011;4690;52.422;13.486;2022-09-09T05:58:43;7.65;;;5.50;;
9304;SDS011;4690;52.422;13.486;2022-09-09T06:01:16;6.82;;;5.13;;
9304;SDS011;4690;52.422;13.486;2022-09-09T06:03:53;5.35;;;4.88;;
9304;SDS011;4690;52.422;13.486;2022-09-09T06:06:23;5.00;;;4.28;;
9304;SDS011;4690;52.422;13.486;2022-09-09T06:08:52;8.35;;;4.97;;
9304;SDS011;4690;52.422;13.486;2022-09-09T06:11:25;7.50;;;4.47;;
9304;SDS011;4690;52.422;13.486;2022-09-09T06:13:56;4.28;;;3.90;;
9304;SDS011;4690;52.422;13.486;2022-09-09T06:16:23;4.45;;;3.92;;
9304;SDS011;4690;52.422;13.486;2022-09-09T06:18:51;4.30;;;3.90;;
9304;SDS011;4690;52.422;13.486;2022-09-09T06:21:22;4.88;;;4.03;;
9304;SDS011;4690;52.422;13.486;2022-09-09T06:23:55;4.65;;;3.70;;
9304;SDS011;4690;52.422;13.486;2022-09-09T06:26:23;5.03;;;3.80;;
9304;SDS011;4690;52.422;13.486;2022-09-09T06:28:51;4.90;;;3.40;;
9304;SDS011;4690;52.422;13.486;2022-09-09T06:31:20;3.50;;;3.10;;
9304;SDS011;4690;52.422;13.486;2022-09-09T06:33:49;5.85;;;3.13;;
9304;SDS011;4690;52.422;13.486;2022-09-09T06:36:17;3.50;;;3.20;;
9304;SDS011;4690;52.422;13.486;2022-09-09T06:38:52;3.25;;;2.95;;
9304;SDS011;4690;52.422;13.486;2022-09-09T06:41:19;3.40;;;3.10;;
9304;SDS011;4690;52.422;13.486;2022-09-09T06:43:47;3.75;;;3.10;;
9304;SDS011;4690;52.422;13.486;2022-09-09T06:46:15;4.75;;;3.00;;
9304;SDS011;4690;52.422;13.486;2022-09-09T06:48:52;4.50;;;3.00;;
9304;SDS011;4690;52.422;13.486;2022-09-09T06:51:20;3.30;;;3.00;;
9304;SDS011;4690;52.422;13.486;2022-09-09T06:53:53;2.83;;;2.63;;
9304;SDS011;4690;52.422;13.486;2022-09-09T06:56:22;3.42;;;2.80;;
9304;SDS011;4690;52.422;13.486;2022-09-09T06:58:53;3.45;;;3.00;;
9304;SDS011;4690;52.422;13.486;2022-09-09T07:01:23;2.70;;;2.50;;
9304;SDS011;4690;52.422;13.486;2022-09-09T07:03:55;4.07;;;2.70;;
9304;SDS011;4690;52.422;13.486;2022-09-09T07:06:25;4.82;;;2.60;;
9304;SDS011;4690;52.422;13.486;2022-09-09T07:08:54;5.53;;;2.90;;
9304;SDS011;4690;52.422;13.486;2022-09-09T07:11:24;3.30;;;2.25;;
9304;SDS011;4690;52.422;13.486;2022-09-09T07:13:53;4.05;;;2.70;;
9304;SDS011;4690;52.422;13.486;2022-09-09T07:16:20;4.40;;;2.70;;
9304;SDS011;4690;52.422;13.486;2022-09-09T07:18:49;4.40;;;2.55;;
9304;SDS011;4690;52.422;13.486;2022-09-09T07:21:15;4.25;;;2.90;;
9304;SDS011;4690;52.422;13.486;2022-09-09T07:23:42;2.40;;;2.20;;
9304;SDS011;4690;52.422;13.486;2022-09-09T07:26:13;3.38;;;2.47;;
9304;SDS011;4690;52.422;13.486;2022-09-09T07:28:41;5.32;;;2.70;;
9304;SDS011;4690;52.422;13.486;2022-09-09T07:31:15;4.10;;;2.50;;
9304;SDS011;4690;52.422;13.486;2022-09-09T07:33:47;4.07;;;2.70;;
9304;SDS011;4690;52.422;13.486;2022-09-09T07:38:49;5.85;;;2.40;;
9304;SDS011;4690;52.422;13.486;2022-09-09T07:41:28;5.45;;;2.33;;
9304;SDS011;4690;52.422;13.486;2022-09-09T07:43:59;3.00;;;1.98;;
9304;SDS011;4690;52.422;13.486;2022-09-09T07:46:28;3.42;;;2.17;;
9304;SDS011;4690;52.422;13.486;2022-09-09T07:48:54;2.95;;;1.95;;
9304;SDS011;4690;52.422;13.486;2022-09-09T07:51:24;2.65;;;2.30;;
9304;SDS011;4690;52.422;13.486;2022-09-09T07:53:57;3.63;;;2.25;;
9304;SDS011;4690;52.422;13.486;2022-09-09T07:56:27;2.92;;;2.28;;
9304;SDS011;4690;52.422;13.486;2022-09-09T07:58:55;4.80;;;2.28;;
9304;SDS011;4690;52.422;13.486;2022-09-09T08:01:34;2.42;;;2.15;;
9304;SDS011;4690;52.422;13.486;2022-09-09T08:04:14;4.05;;;2.17;;
9304;SDS011;4690;52.422;13.486;2022-09-09T08:06:44;2.67;;;2.47;;
9304;SDS011;4690;52.422;13.486;2022-09-09T08:09:17;2.25;;;2.00;;
9304;SDS011;4690;52.422;13.486;2022-09-09T08:11:44;3.78;;;2.25;;
9304;SDS011;4690;52.422;13.486;2022-09-09T08:14:11;4.78;;;2.17;;
9304;SDS011;4690;52.422;13.486;2022-09-09T08:16:41;3.40;;;2.15;;
9304;SDS011;4690;52.422;13.486;2022-09-09T08:19:10;4.10;;;2.22;;
9304;SDS011;4690;52.422;13.486;2022-09-09T08:21:37;5.55;;;2.63;;
9304;SDS011;4690;52.422;13.486;2022-09-09T08:24:05;4.30;;;2.00;;
9304;SDS011;4690;52.422;13.486;2022-09-09T08:26:40;4.85;;;2.45;;
9304;SDS011;4690;52.422;13.486;2022-09-09T08:29:12;3.55;;;2.30;;
9304;SDS011;4690;52.422;13.486;2022-09-09T08:31:43;3.83;;;2.28;;
9304;SDS011;4690;52.422;13.486;2022-09-09T08:34:12;2.50;;;2.30;;
9304;SDS011;4690;52.422;13.486;2022-09-09T08:36:42;2.88;;;2.10;;
9304;SDS011;4690;52.422;13.486;2022-09-09T08:39:10;4.10;;;2.25;;
9304;SDS011;4690;52.422;13.486;2022-09-09T08:50:29;5.13;;;2.20;;
9304;SDS011;4690;52.422;13.486;2022-09-09T08:55:51;5.05;;;2.30;;
9304;SDS011;4690;52.422;13.486;2022-09-09T08:58:27;5.30;;;2.42;;
9304;SDS011;4690;52.422;13.486;2022-09-09T09:03:54;6.22;;;2.42;;
9304;SDS011;4690;52.422;13.486;2022-09-09T09:06:41;4.00;;;2.25;;
9304;SDS011;4690;52.422;13.486;2022-09-09T09:12:20;4.22;;;2.22;;
9304;SDS011;4690;52.422;13.486;2022-09-09T09:14:50;6.85;;;2.30;;
9304;SDS011;4690;52.422;13.486;2022-09-09T09:19:46;2.40;;;2.20;;
9304;SDS011;4690;52.422;13.486;2022-09-09T09:22:16;4.22;;;2.45;;
9304;SDS011;4690;52.422;13.486;2022-09-09T09:25:12;4.82;;;2.33;;
9304;SDS011;4690;52.422;13.486;2022-09-09T09:30:50;3.15;;;2.20;;
9304;SDS011;4690;52.422;13.486;2022-09-09T09:35:56;4.07;;;2.47;;
9304;SDS011;4690;52.422;13.486;2022-09-09T09:38:25;4.65;;;2.13;;
9304;SDS011;4690;52.422;13.486;2022-09-09T09:40:56;3.20;;;2.30;;
9304;SDS011;4690;52.422;13.486;2022-09-09T09:45:58;3.63;;;1.90;;
9304;SDS011;4690;52.422;13.486;2022-09-09T09:48:24;5.15;;;2.50;;
9304;SDS011;4690;52.422;13.486;2022-09-09T09:53:38;3.30;;;1.90;;
9304;SDS011;4690;52.422;13.486;2022-09-09T09:56:05;6.38;;;1.92;;
9304;SDS011;4690;52.422;13.486;2022-09-09T09:58:56;3.63;;;1.98;;
9304;SDS011;4690;52.422;13.486;2022-09-09T10:01:22;2.58;;;1.95;;
9304;SDS011;4690;52.422;13.486;2022-09-09T10:04:02;3.95;;;2.20;;
9304;SDS011;4690;52.422;13.486;2022-09-09T10:06:43;4.25;;;2.20;;
9304;SDS011;4690;52.422;13.486;2022-09-09T10:09:23;3.25;;;2.10;;
9304;SDS011;4690;52.422;13.486;2022-09-09T10:12:02;3.97;;;2.20;;
9304;SDS011;4690;52.422;13.486;2022-09-09T10:15:26;2.88;;;2.00;;
9304;SDS011;4690;52.422;13.486;2022-09-09T10:18:25;3.15;;;2.00;;
9304;SDS011;4690;52.422;13.486;2022-09-09T10:33:41;2.47;;;1.75;;
9304;SDS011;4690;52.422;13.486;2022-09-09T10:36:39;2.15;;;1.90;;
9304;SDS011;4690;52.422;13.486;2022-09-09T10:42:09;2.97;;;2.15;;
9304;SDS011;4690;52.422;13.486;2022-09-09T10:47:45;3.38;;;1.83;;
9304;SDS011;4690;52.422;13.486;2022-09-09T10:50:48;2.10;;;1.88;;
9304;SDS011;4690;52.422;13.486;2022-09-09T10:53:36;2.67;;;2.00;;
9304;SDS011;4690;52.422;13.486;2022-09-09T10:56:18;6.18;;;2.38;;
9304;SDS011;4690;52.422;13.486;2022-09-09T10:58:58;3.55;;;1.90;;
9304;SDS011;4690;52.422;13.486;2022-09-09T11:01:34;3.92;;;1.90;;
9304;SDS011;4690;52.422;13.486;2022-09-09T11:04:16;3.10;;;1.80;;
9304;SDS011;4690;52.422;13.486;2022-09-09T11:07:06;3.85;;;2.00;;
9304;SDS011;4690;52.422;13.486;2022-09-09T11:09:47;2.15;;;1.90;;
9304;SDS011;4690;52.422;13.486;2022-09-09T11:12:20;2.08;;;1.90;;
9304;SDS011;4690;52.422;13.486;2022-09-09T11:14:50;2.63;;;1.67;;
9304;SDS011;4690;52.422;13.486;2022-09-09T11:17:33;7.22;;;2.00;;
9304;SDS011;4690;52.422;13.486;2022-09-09T11:20:13;3.03;;;1.90;;
9304;SDS011;4690;52.422;13.486;2022-09-09T11:22:43;4.28;;;1.92;;
9304;SDS011;4690;52.422;13.486;2022-09-09T11:25:48;3.05;;;1.73;;
9304;SDS011;4690;52.422;13.486;2022-09-09T11:28:32;4.25;;;1.80;;
9304;SDS011;4690;52.422;13.486;2022-09-09T11:31:34;2.78;;;1.70;;
9304;SDS011;4690;52.422;13.486;2022-09-09T11:34:32;2.17;;;1.80;;
9304;SDS011;4690;52.422;13.486;2022-09-09T11:37:21;2.50;;;1.80;;
9304;SDS011;4690;52.422;13.486;2022-09-09T11:40:22;3.75;;;1.90;;
9304;SDS011;4690;52.422;13.486;2022-09-09T11:43:05;4.15;;;1.98;;
9304;SDS011;4690;52.422;13.486;2022-09-09T11:45:50;2.25;;;1.50;;
9304;SDS011;4690;52.422;13.486;2022-09-09T11:48:40;3.45;;;1.88;;
9304;SDS011;4690;52.422;13.486;2022-09-09T11:51:11;3.40;;;1.60;;
9304;SDS011;4690;52.422;13.486;2022-09-09T11:53:54;2.33;;;1.70;;
9304;SDS011;4690;52.422;13.486;2022-09-09T12:06:43;2.72;;;1.50;;
9304;SDS011;4690;52.422;13.486;2022-09-09T12:11:50;2.22;;;1.70;;
9304;SDS011;4690;52.422;13.486;2022-09-09T12:14:20;4.60;;;1.98;;
9304;SDS011;4690;52.422;13.486;2022-09-09T12:17:21;3.55;;;1.83;;
9304;SDS011;4690;52.422;13.486;2022-09-09T12:40:02;2.00;;;1.45;;
9304;SDS011;4690;52.422;13.486;2022-09-09T12:42:43;2.72;;;1.60;;
9304;SDS011;4690;52.422;13.486;2022-09-09T12:45:22;3.53;;;1.65;;
9304;SDS011;4690;52.422;13.486;2022-09-09T12:48:05;1.92;;;1.40;;
9304;SDS011;4690;52.422;13.486;2022-09-09T12:50:37;4.70;;;1.65;;
9304;SDS011;4690;52.422;13.486;2022-09-09T12:53:12;3.58;;;1.58;;
9304;SDS011;4690;52.422;13.486;2022-09-09T12:55:58;3.47;;;1.55;;
9304;SDS011;4690;52.422;13.486;2022-09-09T12:58:33;4.35;;;1.60;;
9304;SDS011;4690;52.422;13.486;2022-09-09T13:01:03;3.20;;;1.67;;
9304;SDS011;4690;52.422;13.486;2022-09-09T13:03:31;4.95;;;1.60;;
9304;SDS011;4690;52.422;13.486;2022-09-09T13:06:10;1.48;;;1.33;;
9304;SDS011;4690;52.422;13.486;2022-09-09T13:08:39;1.55;;;1.30;;
9304;SDS011;4690;52.422;13.486;2022-09-09T13:11:10;2.47;;;1.50;;
9304;SDS011;4690;52.422;13.486;2022-09-09T13:13:41;1.92;;;1.58;;
9304;SDS011;4690;52.422;13.486;2022-09-09T13:16:53;1.85;;;1.50;;
9304;SDS011;4690;52.422;13.486;2022-09-09T13:19:13;2.00;;;1.50;;
9304;SDS011;4690;52.422;13.486;2022-09-09T13:21:41;1.42;;;1.30;;
9304;SDS011;4690;52.422;13.486;2022-09-09T13:30:19;2.45;;;1.45;;
9304;SDS011;4690;52.422;13.486;2022-09-09T13:33:17;3.50;;;1.70;;
9304;SDS011;4690;52.422;13.486;2022-09-09T13:38:22;2.15;;;1.70;;
9304;SDS011;4690;52.422;13.486;2022-09-09T13:41:08;2.58;;;1.60;;
9304;SDS011;4690;52.422;13.486;2022-09-09T13:43:53;1.60;;;1.50;;
9304;SDS011;4690;52.422;13.486;2022-09-09T13:46:23;3.30;;;1.42;;
9304;SDS011;4690;52.422;13.486;2022-09-09T13:51:41;3.40;;;1.70;;
9304;SDS011;4690;52.422;13.486;2022-09-09T13:54:12;3.15;;;1.80;;
9304;SDS011;4690;52.422;13.486;2022-09-09T13:56:41;2.40;;;1.60;;
9304;SDS011;4690;52.422;13.486;2022-09-09T13:59:15;4.03;;;1.55;;
9304;SDS011;4690;52.422;13.486;2022-09-09T14:01:44;2.40;;;1.80;;
9304;SDS011;4690;52.422;13.486;2022-09-09T14:04:11;1.63;;;1.48;;
9304;SDS011;4690;52.422;13.486;2022-09-09T14:06:37;2.40;;;1.55;;
9304;SDS011;4690;52.422;13.486;2022-09-09T14:09:05;2.33;;;1.70;;
9304;SDS011;4690;52.422;13.486;2022-09-09T14:11:33;2.17;;;1.40;;
9304;SDS011;4690;52.422;13.486;2022-09-09T14:13:59;2.78;;;1.60;;
9304;SDS011;4690;52.422;13.486;2022-09-09T14:16:25;4.00;;;1.60;;
9304;SDS011;4690;52.422;13.486;2022-09-09T14:18:52;3.60;;;1.77;;
9304;SDS011;4690;52.422;13.486;2022-09-09T14:21:18;4.82;;;1.98;;
9304;SDS011;4690;52.422;13.486;2022-09-09T14:23:44;2.20;;;1.63;;
9304;SDS011;4690;52.422;13.486;2022-09-09T14:26:10;6.50;;;1.77;;
9304;SDS011;4690;52.422;13.486;2022-09-09T14:28:35;4.85;;;1.83;;
9304;SDS011;4690;52.422;13.486;2022-09-09T14:31:02;3.17;;;1.85;;
9304;SDS011;4690;52.422;13.486;2022-09-09T14:33:30;2.45;;;1.70;;
9304;SDS011;4690;52.422;13.486;2022-09-09T14:35:56;3.25;;;1.77;;
9304;SDS011;4690;52.422;13.486;2022-09-09T14:38:34;4.55;;;1.70;;
9304;SDS011;4690;52.422;13.486;2022-09-09T14:41:04;5.95;;;2.08;;
9304;SDS011;4690;52.422;13.486;2022-09-09T14:43:31;2.15;;;1.73;;
9304;SDS011;4690;52.422;13.486;2022-09-09T14:46:03;3.38;;;2.00;;
9304;SDS011;4690;52.422;13.486;2022-09-09T14:48:34;4.32;;;1.75;;
9304;SDS011;4690;52.422;13.486;2022-09-09T14:53:44;5.47;;;2.10;;
9304;SDS011;4690;52.422;13.486;2022-09-09T14:56:13;2.72;;;1.90;;
9304;SDS011;4690;52.422;13.486;2022-09-09T14:58:43;3.38;;;2.10;;
9304;SDS011;4690;52.422;13.486;2022-09-09T15:01:12;3.65;;;2.28;;
9304;SDS011;4690;52.422;13.486;2022-09-09T15:03:48;3.33;;;2.10;;
9304;SDS011;4690;52.422;13.486;2022-09-09T15:06:16;4.45;;;2.20;;
9304;SDS011;4690;52.422;13.486;2022-09-09T15:08:43;3.38;;;2.15;;
9304;SDS011;4690;52.422;13.486;2022-09-09T15:11:10;3.05;;;2.00;;
9304;SDS011;4690;52.422;13.486;2022-09-09T15:13:38;2.63;;;1.70;;
9304;SDS011;4690;52.422;13.486;2022-09-09T15:16:10;2.50;;;1.65;;
9304;SDS011;4690;52.422;13.486;2022-09-09T15:18:40;3.45;;;2.20;;
9304;SDS011;4690;52.422;13.486;2022-09-09T15:21:10;4.45;;;1.85;;
9304;SDS011;4690;52.422;13.486;2022-09-09T15:23:39;4.25;;;1.85;;
9304;SDS011;4690;52.422;13.486;2022-09-09T15:26:05;3.30;;;1.83;;
9304;SDS011;4690;52.422;13.486;2022-09-09T15:28:34;2.38;;;1.70;;
9304;SDS011;4690;52.422;13.486;2022-09-09T15:31:07;2.92;;;2.00;;
9304;SDS011;4690;52.422;13.486;2022-09-09T15:33:51;2.38;;;1.60;;
9304;SDS011;4690;52.422;13.486;2022-09-09T15:36:26;3.75;;;1.65;;
9304;SDS011;4690;52.422;13.486;2022-09-09T15:39:06;1.55;;;1.40;;
9304;SDS011;4690;52.422;13.486;2022-09-09T15:41:37;3.53;;;1.52;;
9304;SDS011;4690;52.422;13.486;2022-09-09T15:44:04;1.50;;;1.40;;
9304;SDS011;4690;52.422;13.486;2022-09-09T15:46:32;1.83;;;1.38;;
9304;SDS011;4690;52.422;13.486;2022-09-09T15:49:11;1.88;;;1.40;;
9304;SDS011;4690;52.422;13.486;2022-09-09T15:51:43;2.72;;;1.30;;
9304;SDS011;4690;52.422;13.486;2022-09-09T15:54:16;2.05;;;1.60;;
9304;SDS011;4690;52.422;13.486;2022-09-09T15:56:45;1.63;;;1.40;;
9304;SDS011;4690;52.422;13.486;2022-09-09T15:59:15;1.52;;;1.30;;
9304;SDS011;4690;52.422;13.486;2022-09-09T16:01:41;2.08;;;1.80;;
9304;SDS011;4690;52.422;13.486;2022-09-09T16:04:08;2.90;;;1.98;;
9304;SDS011;4690;52.422;13.486;2022-09-09T16:06:35;3.28;;;1.70;;
9304;SDS011;4690;52.422;13.486;2022-09-09T16:09:02;1.77;;;1.50;;
9304;SDS011;4690;52.422;13.486;2022-09-09T16:11:33;2.25;;;1.63;;
9304;SDS011;4690;52.422;13.486;2022-09-09T16:14:02;1.85;;;1.50;;
9304;SDS011;4690;52.422;13.486;2022-09-09T16:16:30;1.40;;;1.30;;
9304;SDS011;4690;52.422;13.486;2022-09-09T16:19:00;1.63;;;1.50;;
9304;SDS011;4690;52.422;13.486;2022-09-09T16:21:32;1.77;;;1.52;;
9304;SDS011;4690;52.422;13.486;2022-09-09T16:24:04;1.90;;;1.40;;
9304;SDS011;4690;52.422;13.486;2022-09-09T16:26:33;2.63;;;1.90;;
9304;SDS011;4690;52.422;13.486;2022-09-09T16:29:02;3.60;;;2.35;;
9304;SDS011;4690;52.422;13.486;2022-09-09T16:31:29;5.88;;;2.05;;
9304;SDS011;4690;52.422;13.486;2022-09-09T16:33:56;3.42;;;2.00;;
9304;SDS011;4690;52.422;13.486;2022-09-09T16:36:24;2.10;;;1.65;;
9304;SDS011;4690;52.422;13.486;2022-09-09T16:38:57;2.53;;;1.75;;
9304;SDS011;4690;52.422;13.486;2022-09-09T16:41:25;4.93;;;1.90;;
9304;SDS011;4690;52.422;13.486;2022-09-09T16:43:54;2.42;;;1.60;;
9304;SDS011;4690;52.422;13.486;2022-09-09T16:46:44;5.95;;;1.98;;
9304;SDS011;4690;52.422;13.486;2022-09-09T16:49:13;4.30;;;1.77;;
9304;SDS011;4690;52.422;13.486;2022-09-09T16:51:47;2.63;;;1.80;;
9304;SDS011;4690;52.422;13.486;2022-09-09T16:54:18;4.55;;;1.90;;
9304;SDS011;4690;52.422;13.486;2022-09-09T16:56:45;2.58;;;1.77;;
9304;SDS011;4690;52.422;13.486;2022-09-09T16:59:16;2.40;;;1.80;;
9304;SDS011;4690;52.422;13.486;2022-09-09T17:01:45;2.83;;;1.90;;
9304;SDS011;4690;52.422;13.486;2022-09-09T17:04:16;3.67;;;2.08;;
9304;SDS011;4690;52.422;13.486;2022-09-09T17:06:48;4.60;;;1.90;;
9304;SDS011;4690;52.422;13.486;2022-09-09T17:09:17;3.75;;;1.98;;
9304;SDS011;4690;52.422;13.486;2022-09-09T17:11:45;2.03;;;1.80;;
9304;SDS011;4690;52.422;13.486;2022-09-09T17:14:14;2.47;;;1.88;;
9304;SDS011;4690;52.422;13.486;2022-09-09T17:16:42;3.70;;;1.67;;
9304;SDS011;4690;52.422;13.486;2022-09-09T17:19:09;3.88;;;1.77;;
9304;SDS011;4690;52.422;13.486;2022-09-09T17:21:35;1.50;;;1.40;;
9304;SDS011;4690;52.422;13.486;2022-09-09T17:24:02;2.08;;;1.60;;
9304;SDS011;4690;52.422;13.486;2022-09-09T17:26:29;2.05;;;1.60;;
9304;SDS011;4690;52.422;13.486;2022-09-09T17:28:58;2.80;;;1.52;;
9304;SDS011;4690;52.422;13.486;2022-09-09T17:31:26;2.03;;;1.50;;
9304;SDS011;4690;52.422;13.486;2022-09-09T17:33:53;1.80;;;1.38;;
9304;SDS011;4690;52.422;13.486;2022-09-09T17:36:31;2.47;;;1.70;;
9304;SDS011;4690;52.422;13.486;2022-09-09T17:38:59;2.78;;;1.85;;
9304;SDS011;4690;52.422;13.486;2022-09-09T17:43:55;1.65;;;1.55;;
9304;SDS011;4690;52.422;13.486;2022-09-09T17:46:26;3.85;;;1.75;;
9304;SDS011;4690;52.422;13.486;2022-09-09T17:49:06;4.45;;;1.85;;
9304;SDS011;4690;52.422;13.486;2022-09-09T17:51:38;3.60;;;1.70;;
9304;SDS011;4690;52.422;13.486;2022-09-09T17:54:07;2.13;;;1.70;;
9304;SDS011;4690;52.422;13.486;2022-09-09T17:56:37;2.65;;;2.03;;
9304;SDS011;4690;52.422;13.486;2022-09-09T17:59:05;1.92;;;1.65;;
9304;SDS011;4690;52.422;13.486;2022-09-09T18:01:33;1.80;;;1.60;;
9304;SDS011;4690;52.422;13.486;2022-09-09T18:04:03;2.00;;;1.80;;
9304;SDS011;4690;52.422;13.486;2022-09-09T18:06:32;2.45;;;1.90;;
9304;SDS011;4690;52.422;13.486;2022-09-09T18:09:05;2.58;;;2.03;;
9304;SDS011;4690;52.422;13.486;2022-09-09T18:11:35;3.22;;;1.90;;
9304;SDS011;4690;52.422;13.486;2022-09-09T18:14:07;2.15;;;1.92;;
9304;SDS011;4690;52.422;13.486;2022-09-09T18:16:40;3.35;;;2.17;;
9304;SDS011;4690;52.422;13.486;2022-09-09T18:19:07;2.50;;;1.95;;
9304;SDS011;4690;52.422;13.486;2022-09-09T18:21:38;2.65;;;1.90;;